Time;durP1;ratioP1;P1;durP2;ratioP2;P2;SDS_P1;SDS_P2;PMS_P1;PMS_P2;Temp;Humidity;BMP_temperature;BMP_pressure;BME280_temperature;BME280_humidity;BME280_pressure;Samples;Min_cycle;Max_cycle;Signal;HPM_P1;HPM_P2
2022/01/21 00:01:29;;;;;;;13.18;4.03;;;0.70;99.90;;;;;;4974171;28;20815;-79
2022/01/21 00:03:55;;;;;;;8.40;3.87;;;0.60;99.90;;;;;;4974271;28;20268;-80
2022/01/21 00:06:22;;;;;;;11.65;4.20;;;0.60;99.90;;;;;;4974139;28;20204;-80
2022/01/21 00:08:51;;;;;;;11.60;4.05;;;0.70;99.90;;;;;;4975907;28;20176;-80
2022/01/21 00:11:17;;;;;;;7.70;3.50;;;0.70;99.90;;;;;;4976724;28;20199;-79
2022/01/21 00:13:43;;;;;;;8.45;4.05;;;0.70;99.90;;;;;;4978285;28;20184;-78
2022/01/21 00:16:17;;;;;;;11.55;5.05;;;0.70;99.90;;;;;;4978204;28;20193;-80
2022/01/21 00:18:59;;;;;;;17.13;5.35;;;0.80;99.90;;;;;;4978261;28;20173;-80
2022/01/21 00:32:24;;;;;;;13.02;5.80;;;0.70;99.90;;;;;;4977803;28;20208;-79
2022/01/21 00:34:50;;;;;;;10.47;4.60;;;0.80;99.90;;;;;;4977931;28;20178;-80
2022/01/21 00:37:16;;;;;;;9.25;4.38;;;0.90;99.90;;;;;;4978054;28;20186;-79
2022/01/21 00:39:44;;;;;;;18.40;5.17;;;0.90;99.90;;;;;;4977852;28;20189;-81
2022/01/21 00:44:38;;;;;;;12.40;4.38;;;0.90;99.90;;;;;;4976274;28;20191;-79
2022/01/21 00:47:05;;;;;;;12.37;4.20;;;0.90;99.90;;;;;;4977713;28;20663;-80
2022/01/21 00:49:30;;;;;;;10.60;4.38;;;0.90;99.90;;;;;;4977615;28;20185;-80
2022/01/21 00:51:56;;;;;;;13.27;4.40;;;0.80;99.90;;;;;;4977436;28;20651;-80
2022/01/21 00:54:22;;;;;;;10.97;4.40;;;0.90;99.90;;;;;;4977481;28;20297;-80
2022/01/21 00:56:47;;;;;;;23.63;6.67;;;0.90;99.90;;;;;;4976302;28;20200;-79
2022/01/21 00:59:13;;;;;;;18.87;4.53;;;0.90;99.90;;;;;;4977487;28;20182;-78
2022/01/21 01:01:39;;;;;;;14.20;5.10;;;0.90;99.90;;;;;;4975877;28;20205;-80
2022/01/21 01:04:05;;;;;;;12.07;4.20;;;0.80;99.90;;;;;;4977301;28;20185;-79
2022/01/21 01:06:30;;;;;;;16.35;5.20;;;0.80;99.90;;;;;;4977099;28;20221;-79
2022/01/21 01:08:56;;;;;;;10.73;5.07;;;0.80;99.90;;;;;;4977231;28;20236;-80
2022/01/21 01:11:42;;;;;;;10.00;4.80;;;0.80;99.90;;;;;;4976793;28;20205;-81
2022/01/21 01:22:24;;;;;;;11.20;4.80;;;0.70;99.90;;;;;;4976722;28;20353;-80
2022/01/21 01:30:01;;;;;;;10.23;4.70;;;0.70;99.90;;;;;;4977290;28;20258;-80
2022/01/21 01:32:28;;;;;;;10.40;4.95;;;0.70;99.90;;;;;;4976514;28;20201;-80
2022/01/21 01:34:54;;;;;;;11.68;5.25;;;0.60;99.90;;;;;;4959686;28;20237;-79
2022/01/21 01:43:22;;;;;;;9.60;5.15;;;0.60;99.90;;;;;;4976689;28;20196;-79
2022/01/21 01:50:55;;;;;;;22.30;5.90;;;0.60;99.90;;;;;;4976141;28;20208;-79
2022/01/21 01:53:38;;;;;;;16.33;6.65;;;0.60;99.90;;;;;;4976455;28;20177;-79
2022/01/21 01:56:08;;;;;;;15.43;6.07;;;0.70;99.90;;;;;;4976395;28;20712;-80
2022/01/21 01:58:36;;;;;;;19.42;6.10;;;0.70;99.90;;;;;;4976727;28;20203;-80
2022/01/21 02:01:03;;;;;;;10.55;6.00;;;0.70;99.90;;;;;;4975781;28;20232;-81
2022/01/21 02:03:31;;;;;;;9.77;5.18;;;0.70;99.90;;;;;;4975057;28;20549;-80
2022/01/21 02:05:56;;;;;;;20.88;5.97;;;0.80;99.90;;;;;;4976319;28;20283;-79
2022/01/21 02:08:22;;;;;;;15.07;6.80;;;0.70;99.90;;;;;;4976508;28;20327;-80
2022/01/21 02:10:48;;;;;;;14.60;5.43;;;0.80;99.90;;;;;;4976089;28;20185;-80
2022/01/21 02:13:20;;;;;;;18.93;5.43;;;0.70;99.90;;;;;;4974592;28;20468;-80
2022/01/21 02:16:10;;;;;;;10.38;5.57;;;0.70;99.90;;;;;;4975034;28;20189;-80
2022/01/21 02:21:39;;;;;;;21.80;6.05;;;0.70;99.90;;;;;;4975901;28;20294;-80
2022/01/21 02:24:19;;;;;;;17.77;6.82;;;0.60;99.90;;;;;;4976026;28;20200;-80
2022/01/21 02:26:48;;;;;;;16.73;5.70;;;0.60;99.90;;;;;;4974550;28;20765;-79
2022/01/21 02:29:25;;;;;;;19.48;6.15;;;0.60;99.90;;;;;;4974431;28;20665;-80
2022/01/21 02:31:51;;;;;;;19.23;5.75;;;0.70;99.90;;;;;;4975977;28;20272;-79
2022/01/21 02:34:17;;;;;;;18.13;6.93;;;0.60;99.90;;;;;;4977117;28;20200;-79
2022/01/21 02:36:42;;;;;;;20.33;5.70;;;0.60;99.90;;;;;;4974881;28;20182;-81
2022/01/21 02:39:08;;;;;;;13.87;5.70;;;0.60;99.90;;;;;;4975598;28;20653;-79
2022/01/21 02:41:34;;;;;;;15.77;5.80;;;0.50;99.90;;;;;;4975275;28;20538;-79
2022/01/21 02:43:59;;;;;;;15.80;5.27;;;0.60;99.90;;;;;;4974529;28;20186;-79
2022/01/21 02:46:26;;;;;;;20.20;5.53;;;0.60;99.90;;;;;;4974572;28;20212;-79
2022/01/21 02:48:53;;;;;;;15.20;6.50;;;0.70;99.90;;;;;;4975364;28;20233;-80
2022/01/21 02:51:19;;;;;;;12.17;6.60;;;0.70;99.90;;;;;;4975101;28;20282;-79
2022/01/21 02:56:13;;;;;;;16.75;5.30;;;0.60;99.90;;;;;;4975441;28;20186;-78
2022/01/21 02:58:39;;;;;;;11.82;4.72;;;0.60;99.90;;;;;;4975211;28;20181;-80
2022/01/21 03:01:06;;;;;;;14.68;6.22;;;0.50;99.90;;;;;;4974859;28;20188;-80
2022/01/21 03:03:31;;;;;;;18.70;6.30;;;0.60;99.90;;;;;;4975032;28;20177;-78
2022/01/21 03:05:57;;;;;;;16.23;5.70;;;0.60;99.90;;;;;;4975134;28;20212;-81
2022/01/21 03:08:23;;;;;;;17.30;8.30;;;0.70;99.90;;;;;;4975282;28;20260;-79
2022/01/21 03:10:49;;;;;;;16.93;5.60;;;0.70;99.90;;;;;;4974709;28;20966;-79
2022/01/21 03:13:15;;;;;;;13.98;4.72;;;0.70;99.90;;;;;;4974982;28;20208;-81
2022/01/21 03:15:41;;;;;;;21.00;7.70;;;0.80;99.90;;;;;;4974851;28;20594;-79
2022/01/21 03:18:07;;;;;;;18.35;6.10;;;0.80;99.90;;;;;;4974944;28;20188;-80
2022/01/21 03:20:32;;;;;;;18.40;6.13;;;0.80;99.90;;;;;;4975043;28;20185;-80
2022/01/21 03:23:00;;;;;;;31.70;8.97;;;0.80;99.90;;;;;;4973473;28;20208;-80
2022/01/21 03:25:26;;;;;;;16.35;5.43;;;0.80;99.90;;;;;;4974955;28;20194;-79
2022/01/21 03:27:51;;;;;;;15.33;5.17;;;0.90;99.90;;;;;;4974687;28;20214;-80
2022/01/21 03:30:17;;;;;;;21.13;4.73;;;0.90;99.90;;;;;;4973408;28;20187;-81
2022/01/21 03:32:43;;;;;;;8.37;5.40;;;1.00;99.90;;;;;;4974360;28;20196;-80
2022/01/21 03:35:09;;;;;;;16.60;5.00;;;1.00;99.90;;;;;;4974809;28;20179;-81
2022/01/21 03:37:34;;;;;;;9.47;4.77;;;0.90;99.90;;;;;;4974570;28;20241;-80
2022/01/21 03:40:00;;;;;;;11.10;3.63;;;0.90;99.90;;;;;;4973398;28;20413;-81
2022/01/21 03:42:26;;;;;;;12.43;4.63;;;1.00;99.90;;;;;;4974077;28;20772;-79
2022/01/21 03:44:51;;;;;;;12.73;5.03;;;1.00;99.90;;;;;;4973046;28;20193;-79
2022/01/21 03:47:17;;;;;;;9.47;3.67;;;1.00;99.90;;;;;;4974552;28;20695;-79
2022/01/21 03:49:52;;;;;;;12.87;4.10;;;1.00;99.90;;;;;;4974475;28;20184;-81
2022/01/21 03:52:18;;;;;;;21.52;5.00;;;0.90;99.90;;;;;;4974094;28;20201;-80
2022/01/21 03:54:44;;;;;;;14.20;3.97;;;0.90;99.90;;;;;;4974454;28;20171;-80
2022/01/21 03:57:09;;;;;;;12.77;4.17;;;0.90;99.90;;;;;;4973038;28;20502;-79
2022/01/21 03:59:35;;;;;;;10.93;4.60;;;0.90;99.90;;;;;;4973147;28;20183;-80
2022/01/21 04:02:01;;;;;;;13.53;4.30;;;0.80;99.90;;;;;;4956596;28;20562;-81
2022/01/21 04:04:27;;;;;;;15.53;4.77;;;0.80;99.90;;;;;;4974343;28;20214;-80
2022/01/21 04:06:52;;;;;;;12.80;4.27;;;0.90;99.90;;;;;;4974246;28;20487;-81
2022/01/21 04:09:18;;;;;;;14.30;4.40;;;0.90;99.90;;;;;;4974305;28;20427;-80
2022/01/21 04:11:43;;;;;;;9.70;3.57;;;0.90;99.90;;;;;;4973880;28;20218;-81
2022/01/21 04:14:09;;;;;;;9.10;4.07;;;0.80;99.90;;;;;;4974411;28;20665;-80
2022/01/21 04:16:35;;;;;;;11.80;4.53;;;0.90;99.90;;;;;;4974328;28;20283;-81
2022/01/21 04:19:00;;;;;;;20.43;4.60;;;0.90;99.90;;;;;;4974297;28;20188;-80
2022/01/21 04:21:27;;;;;;;12.33;4.17;;;1.00;99.90;;;;;;4972564;28;20212;-81
2022/01/21 04:23:52;;;;;;;12.65;4.65;;;1.00;99.90;;;;;;4974207;28;20233;-81
2022/01/21 04:26:18;;;;;;;21.67;4.17;;;1.00;99.90;;;;;;4973966;28;20210;-81
2022/01/21 04:28:44;;;;;;;14.27;4.03;;;1.00;99.90;;;;;;4974216;28;20191;-79
2022/01/21 04:31:09;;;;;;;14.93;4.70;;;1.00;99.90;;;;;;4972736;28;20661;-79
2022/01/21 04:33:35;;;;;;;8.57;4.60;;;1.10;99.90;;;;;;4973008;28;20207;-80
2022/01/21 04:36:00;;;;;;;21.43;4.97;;;1.00;99.90;;;;;;4974294;28;20193;-79
2022/01/21 04:38:26;;;;;;;8.70;4.30;;;1.10;99.90;;;;;;4973052;28;20672;-80
2022/01/21 04:41:07;;;;;;;14.80;4.03;;;1.20;99.90;;;;;;4973969;28;20274;-79
2022/01/21 04:49:01;;;;;;;9.07;3.80;;;1.20;99.90;;;;;;4974390;28;20191;-80
2022/01/21 04:51:29;;;;;;;9.30;3.77;;;1.20;99.90;;;;;;4973691;28;20562;-80
2022/01/21 04:53:55;;;;;;;12.20;4.45;;;1.20;99.90;;;;;;4972906;28;20220;-81
2022/01/21 04:56:21;;;;;;;12.32;3.88;;;1.10;99.90;;;;;;4976329;28;20586;-79
2022/01/21 04:58:47;;;;;;;13.47;4.20;;;1.30;99.90;;;;;;4977306;28;20211;-79
2022/01/21 05:01:13;;;;;;;13.00;4.07;;;1.30;99.90;;;;;;4977268;28;20506;-79
2022/01/21 05:03:41;;;;;;;15.02;4.45;;;1.30;99.90;;;;;;4977854;28;20543;-80
2022/01/21 05:06:07;;;;;;;23.27;4.85;;;1.40;99.90;;;;;;4977416;28;20199;-80
2022/01/21 05:11:13;;;;;;;12.73;4.45;;;1.30;99.90;;;;;;4977137;28;20419;-79
2022/01/21 05:13:42;;;;;;;10.18;4.70;;;1.30;99.90;;;;;;4977462;28;20205;-80
2022/01/21 05:18:34;;;;;;;12.02;4.93;;;1.30;99.90;;;;;;4977181;28;20275;-81
2022/01/21 05:21:00;;;;;;;12.30;4.77;;;1.40;99.90;;;;;;4976783;28;20253;-80
2022/01/21 05:23:26;;;;;;;15.18;5.82;;;1.40;99.90;;;;;;4977123;28;20183;-81
2022/01/21 05:25:52;;;;;;;17.13;4.83;;;1.30;99.90;;;;;;4977236;28;20252;-81
2022/01/21 05:28:18;;;;;;;13.30;5.20;;;1.30;99.90;;;;;;4976135;28;20271;-80
2022/01/21 05:30:43;;;;;;;15.83;4.60;;;1.30;99.90;;;;;;4976711;28;20321;-80
2022/01/21 05:33:09;;;;;;;13.80;4.07;;;1.40;99.90;;;;;;4977135;28;20206;-80
2022/01/21 05:35:35;;;;;;;10.20;3.83;;;1.40;99.90;;;;;;4977163;28;20178;-81
2022/01/21 05:38:00;;;;;;;9.00;4.03;;;1.30;99.90;;;;;;4976967;28;20507;-79
2022/01/21 05:40:26;;;;;;;12.47;4.10;;;1.30;99.90;;;;;;4975648;28;20229;-80
2022/01/21 05:42:52;;;;;;;19.17;5.70;;;1.40;99.90;;;;;;4976162;28;20241;-81
2022/01/21 05:48:03;;;;;;;19.70;4.45;;;1.40;99.90;;;;;;4975971;28;20677;-79
2022/01/21 05:50:29;;;;;;;12.70;5.60;;;1.30;99.90;;;;;;4976869;28;20170;-80
2022/01/21 05:52:56;;;;;;;10.90;4.77;;;1.30;99.90;;;;;;4976191;28;20200;-80
2022/01/21 05:55:21;;;;;;;16.27;5.13;;;1.40;99.90;;;;;;4976471;28;20243;-79
2022/01/21 05:57:47;;;;;;;16.33;4.87;;;1.40;99.90;;;;;;4976649;28;20228;-80
2022/01/21 06:00:13;;;;;;;14.67;4.73;;;1.40;99.90;;;;;;4976534;28;20181;-80
2022/01/21 06:02:39;;;;;;;11.07;5.25;;;1.40;99.90;;;;;;4976058;28;20217;-79
2022/01/21 06:05:05;;;;;;;11.20;4.20;;;1.40;99.90;;;;;;4976254;28;20266;-81
2022/01/21 06:07:31;;;;;;;8.63;4.38;;;1.40;99.90;;;;;;4975374;28;20473;-80
2022/01/21 06:09:57;;;;;;;18.07;4.90;;;1.40;99.90;;;;;;4976186;28;20190;-79
2022/01/21 06:12:22;;;;;;;21.17;4.57;;;1.40;99.90;;;;;;4975657;28;20312;-79
2022/01/21 06:14:48;;;;;;;19.63;6.13;;;1.40;99.90;;;;;;4976236;28;20595;-80
2022/01/21 06:17:14;;;;;;;6.10;4.57;;;1.40;99.90;;;;;;4975905;28;20181;-81
2022/01/21 06:19:40;;;;;;;14.38;5.13;;;1.40;99.90;;;;;;4976348;28;20240;-81
2022/01/21 06:22:06;;;;;;;13.88;4.78;;;1.40;99.90;;;;;;4975903;28;20557;-80
2022/01/21 06:24:32;;;;;;;8.25;4.97;;;1.40;99.90;;;;;;4976213;28;20177;-81
2022/01/21 06:27:01;;;;;;;13.17;6.60;;;1.40;99.90;;;;;;4975809;28;20199;-80
2022/01/21 06:29:27;;;;;;;13.27;4.68;;;1.50;99.90;;;;;;4975789;28;20179;-81
2022/01/21 06:31:53;;;;;;;23.73;6.17;;;1.50;99.90;;;;;;4975595;28;20197;-79
2022/01/21 06:34:19;;;;;;;11.30;5.07;;;1.50;99.90;;;;;;4975860;28;20400;-79
2022/01/21 06:36:44;;;;;;;12.87;5.10;;;1.50;99.90;;;;;;4974575;28;20181;-80
2022/01/21 06:39:10;;;;;;;10.87;5.10;;;1.50;99.90;;;;;;4975695;28;20538;-80
2022/01/21 06:41:36;;;;;;;13.98;4.60;;;1.50;99.90;;;;;;4974275;28;20542;-81
2022/01/21 06:44:02;;;;;;;16.67;4.87;;;1.50;99.90;;;;;;4975833;28;20189;-80
2022/01/21 06:46:28;;;;;;;11.43;5.45;;;1.40;99.90;;;;;;4975709;28;20209;-81
2022/01/21 06:48:53;;;;;;;17.23;8.63;;;1.40;99.90;;;;;;4974145;28;20193;-80
2022/01/21 06:51:19;;;;;;;15.90;5.30;;;1.40;99.90;;;;;;4975088;28;20704;-81
2022/01/21 06:53:45;;;;;;;9.83;4.17;;;1.40;99.90;;;;;;4975448;28;20645;-80
2022/01/21 06:56:11;;;;;;;17.48;5.32;;;1.50;99.90;;;;;;4975414;28;20557;-79
2022/01/21 06:58:36;;;;;;;10.40;4.50;;;1.50;99.90;;;;;;4974325;28;20187;-81
2022/01/21 07:01:02;;;;;;;11.03;4.47;;;1.50;99.90;;;;;;4974919;28;20186;-81
2022/01/21 07:03:28;;;;;;;12.60;5.00;;;1.40;99.90;;;;;;4975130;28;20193;-80
2022/01/21 07:05:53;;;;;;;14.27;5.17;;;1.40;99.90;;;;;;4975267;28;20808;-81
2022/01/21 07:08:19;;;;;;;14.83;5.23;;;1.40;99.90;;;;;;4975060;28;20209;-82
2022/01/21 07:10:48;;;;;;;10.80;4.82;;;1.50;99.90;;;;;;4957691;28;20564;-80
2022/01/21 07:13:14;;;;;;;12.02;4.38;;;1.60;99.90;;;;;;4958084;28;20242;-82
2022/01/21 07:15:39;;;;;;;15.70;4.80;;;1.60;99.90;;;;;;4975086;28;20194;-83
2022/01/21 07:18:05;;;;;;;16.93;5.50;;;1.50;99.90;;;;;;4973943;28;20211;-80
2022/01/21 07:20:31;;;;;;;11.87;4.80;;;1.60;99.90;;;;;;4973747;28;20266;-81
2022/01/21 07:22:56;;;;;;;18.33;5.67;;;1.60;99.90;;;;;;4974579;28;20473;-80
2022/01/21 07:25:22;;;;;;;16.90;5.10;;;1.60;99.90;;;;;;4974832;28;20193;-80
2022/01/21 07:27:48;;;;;;;17.73;4.73;;;1.60;99.90;;;;;;4974842;28;20201;-81
2022/01/21 07:30:14;;;;;;;15.57;5.47;;;1.70;99.90;;;;;;4974864;28;20221;-80
2022/01/21 07:32:41;;;;;;;15.48;4.75;;;1.70;99.90;;;;;;4974759;28;20206;-82
2022/01/21 07:35:09;;;;;;;13.93;5.50;;;1.60;99.90;;;;;;4974687;28;20213;-81
2022/01/21 07:37:36;;;;;;;21.65;7.28;;;1.50;99.90;;;;;;4974600;28;20177;-80
2022/01/21 07:40:02;;;;;;;11.90;5.50;;;1.50;99.90;;;;;;4973304;28;20232;-83
2022/01/21 07:42:29;;;;;;;11.45;5.70;;;1.60;99.90;;;;;;4974141;28;20200;-80
2022/01/21 07:44:54;;;;;;;12.05;5.07;;;1.60;99.90;;;;;;4974488;28;20274;-80
2022/01/21 07:47:20;;;;;;;19.37;7.87;;;1.50;99.90;;;;;;4974476;28;20293;-81
2022/01/21 07:49:45;;;;;;;9.97;5.87;;;1.50;99.90;;;;;;4974493;28;20179;-82
2022/01/21 07:52:11;;;;;;;13.73;7.20;;;1.40;99.90;;;;;;4974014;28;20285;-81
2022/01/21 07:54:37;;;;;;;7.43;5.47;;;1.40;99.90;;;;;;4974415;28;20208;-80
2022/01/21 07:57:03;;;;;;;14.83;6.10;;;1.50;99.90;;;;;;4974541;28;20209;-80
2022/01/21 07:59:29;;;;;;;23.43;6.50;;;1.60;99.90;;;;;;4974342;28;20192;-80
2022/01/21 08:01:55;;;;;;;8.57;6.00;;;1.70;99.90;;;;;;4973985;28;20449;-82
2022/01/21 08:04:21;;;;;;;15.55;7.13;;;1.70;99.90;;;;;;4974430;28;20179;-80
2022/01/21 08:06:46;;;;;;;12.30;6.07;;;1.70;99.90;;;;;;4974302;28;20206;-81
2022/01/21 08:09:12;;;;;;;12.63;5.67;;;1.70;99.90;;;;;;4974405;28;20523;-80
2022/01/21 08:11:37;;;;;;;15.07;7.47;;;1.80;99.90;;;;;;4972593;28;20222;-80
2022/01/21 08:14:03;;;;;;;11.03;6.37;;;1.80;99.90;;;;;;4974232;28;20544;-79
2022/01/21 08:16:29;;;;;;;14.17;5.80;;;2.00;99.90;;;;;;4974363;28;20240;-79
2022/01/21 08:18:54;;;;;;;12.20;6.33;;;1.90;99.90;;;;;;4973599;28;20178;-81
2022/01/21 08:21:21;;;;;;;11.47;6.77;;;1.90;99.90;;;;;;4957502;28;20700;-79
2022/01/21 08:23:53;;;;;;;13.45;6.25;;;2.00;99.90;;;;;;4974477;28;20678;-81
2022/01/21 08:26:23;;;;;;;12.60;5.57;;;2.00;99.90;;;;;;4974399;28;20205;-82
2022/01/21 08:28:50;;;;;;;11.45;6.97;;;1.90;99.90;;;;;;4974300;28;20184;-80
2022/01/21 08:31:15;;;;;;;14.10;6.80;;;1.90;99.90;;;;;;4977582;28;20174;-80
2022/01/21 08:33:41;;;;;;;12.13;6.40;;;2.00;99.90;;;;;;4975682;28;20183;-78
2022/01/21 08:36:10;;;;;;;12.93;6.37;;;2.10;99.90;;;;;;4968896;28;20222;-80
2022/01/21 08:38:36;;;;;;;18.65;7.18;;;2.00;99.90;;;;;;4966208;28;20191;-80
2022/01/21 08:41:02;;;;;;;19.38;7.82;;;1.90;99.90;;;;;;4965427;28;21195;-80
2022/01/21 08:43:29;;;;;;;18.73;6.93;;;2.00;99.90;;;;;;4968484;28;20268;-80
2022/01/21 08:45:54;;;;;;;15.43;7.35;;;2.00;99.90;;;;;;4973365;28;20209;-81
2022/01/21 08:48:20;;;;;;;14.33;6.60;;;1.90;99.90;;;;;;4978016;28;20609;-81
2022/01/21 08:50:46;;;;;;;14.17;7.20;;;1.90;99.90;;;;;;4976634;28;20203;-80
2022/01/21 08:55:57;;;;;;;15.18;6.15;;;1.90;99.90;;;;;;4968773;28;20237;-80
2022/01/21 08:58:24;;;;;;;19.85;7.53;;;1.90;99.90;;;;;;4968269;28;20210;-79
2022/01/21 09:00:50;;;;;;;12.77;6.93;;;2.00;99.90;;;;;;4974765;28;20176;-80
2022/01/21 09:03:16;;;;;;;14.75;7.70;;;2.00;99.90;;;;;;4977400;28;20209;-79
2022/01/21 09:05:48;;;;;;;27.00;7.97;;;2.10;99.90;;;;;;4977305;28;20174;-81
2022/01/21 09:08:24;;;;;;;15.48;8.68;;;2.10;99.90;;;;;;4977134;28;20544;-80
2022/01/21 09:10:50;;;;;;;10.68;7.05;;;2.20;99.90;;;;;;4977297;28;20318;-79
2022/01/21 09:13:16;;;;;;;12.93;6.68;;;2.10;99.90;;;;;;4975856;28;20735;-78
2022/01/21 09:15:42;;;;;;;15.65;7.55;;;2.20;99.90;;;;;;4977435;28;20184;-79
2022/01/21 09:18:09;;;;;;;11.43;6.17;;;2.30;99.90;;;;;;4977142;28;20559;-79
2022/01/21 09:20:36;;;;;;;12.50;7.93;;;2.30;99.90;;;;;;4977045;28;20177;-79
2022/01/21 09:23:03;;;;;;;13.93;7.28;;;2.20;99.90;;;;;;4976894;28;20570;-80
2022/01/21 09:25:29;;;;;;;18.45;6.20;;;2.30;99.90;;;;;;4977281;28;20254;-79
2022/01/21 09:27:55;;;;;;;9.90;6.60;;;2.40;99.90;;;;;;4977018;28;20304;-80
2022/01/21 09:30:21;;;;;;;17.20;6.97;;;2.40;99.90;;;;;;4976875;28;20450;-81
2022/01/21 09:32:46;;;;;;;20.67;7.57;;;2.40;99.90;;;;;;4976759;28;20263;-78
2022/01/21 09:35:12;;;;;;;8.33;5.80;;;2.40;99.90;;;;;;4976977;28;20172;-78
2022/01/21 09:37:38;;;;;;;11.87;6.90;;;2.40;99.90;;;;;;4976857;28;20196;-80
2022/01/21 09:40:07;;;;;;;13.20;6.10;;;2.40;99.90;;;;;;4977031;28;20187;-79
2022/01/21 09:42:35;;;;;;;12.38;5.85;;;2.50;99.90;;;;;;4975391;28;20210;-78
2022/01/21 09:45:08;;;;;;;13.48;6.30;;;2.70;99.90;;;;;;4977076;28;20249;-77
2022/01/21 09:47:44;;;;;;;12.98;5.18;;;2.70;99.90;;;;;;4976666;28;20183;-78
2022/01/21 09:50:11;;;;;;;13.23;6.32;;;2.70;99.90;;;;;;4976872;28;20176;-78
2022/01/21 09:52:37;;;;;;;11.30;4.40;;;2.70;99.90;;;;;;4976331;28;20573;-78
2022/01/21 09:55:04;;;;;;;8.40;6.40;;;2.80;99.90;;;;;;4975409;28;20313;-78
2022/01/21 09:57:31;;;;;;;15.77;5.65;;;2.70;99.90;;;;;;4976429;28;20557;-80
2022/01/21 09:59:58;;;;;;;8.43;6.22;;;2.70;99.90;;;;;;4976480;28;20557;-79
2022/01/21 10:02:27;;;;;;;15.55;5.80;;;2.80;99.90;;;;;;4975982;28;20217;-79
2022/01/21 10:04:56;;;;;;;8.52;4.85;;;2.80;99.90;;;;;;4976171;28;20185;-79
2022/01/21 10:07:22;;;;;;;6.80;5.25;;;2.90;99.90;;;;;;4975094;28;20682;-79
2022/01/21 10:09:49;;;;;;;12.65;5.47;;;2.90;99.90;;;;;;4975237;28;20228;-78
2022/01/21 10:12:16;;;;;;;6.30;4.93;;;2.80;99.90;;;;;;4975899;28;20235;-78
2022/01/21 10:14:42;;;;;;;7.95;5.05;;;3.00;99.90;;;;;;4976155;28;20240;-78
2022/01/21 10:17:08;;;;;;;9.70;5.13;;;3.00;99.90;;;;;;4974959;28;20188;-79
2022/01/21 10:19:39;;;;;;;12.23;5.60;;;3.00;99.90;;;;;;4976141;28;20237;-78
2022/01/21 10:22:12;;;;;;;8.32;4.63;;;3.00;99.90;;;;;;4974476;28;21033;-78
2022/01/21 10:25:01;;;;;;;11.02;4.63;;;3.20;99.90;;;;;;4970001;28;20170;-79
2022/01/21 10:27:29;;;;;;;11.63;5.22;;;3.30;99.90;;;;;;4959325;28;20559;-77
2022/01/21 10:29:56;;;;;;;13.85;6.47;;;3.20;99.90;;;;;;4956654;28;20650;-78
2022/01/21 10:32:37;;;;;;;10.85;5.10;;;3.20;99.90;;;;;;4956532;28;20280;-79
2022/01/21 10:35:17;;;;;;;11.07;5.68;;;3.30;99.90;;;;;;4956563;28;20184;-78
2022/01/21 10:37:42;;;;;;;17.60;6.72;;;3.40;99.90;;;;;;4956769;28;20563;-76
2022/01/21 10:40:10;;;;;;;9.77;4.53;;;3.50;99.90;;;;;;4955363;28;20201;-80
2022/01/21 10:42:37;;;;;;;8.05;5.53;;;3.60;99.90;;;;;;4954720;28;20301;-79
2022/01/21 10:45:06;;;;;;;6.80;4.85;;;3.50;99.90;;;;;;4956253;28;20208;-79
2022/01/21 10:47:38;;;;;;;5.40;4.55;;;3.70;99.90;;;;;;4956283;28;20203;-79
2022/01/21 10:50:11;;;;;;;11.20;4.03;;;3.80;99.90;;;;;;4956489;28;20543;-80
2022/01/21 10:52:58;;;;;;;7.68;4.40;;;3.80;99.90;;;;;;4955737;28;20201;-80
2022/01/21 10:55:35;;;;;;;7.45;4.25;;;3.80;99.90;;;;;;4955738;28;20193;-79
2022/01/21 10:58:14;;;;;;;6.40;4.30;;;4.00;99.90;;;;;;4956290;28;20160;-79
2022/01/21 11:00:58;;;;;;;6.85;4.32;;;4.00;99.90;;;;;;4956109;28;20512;-79
2022/01/21 11:03:25;;;;;;;12.68;4.68;;;3.90;99.90;;;;;;4956394;28;20188;-80
2022/01/21 11:05:55;;;;;;;11.35;5.30;;;4.00;99.90;;;;;;4956073;28;20545;-79
2022/01/21 11:08:31;;;;;;;6.53;5.00;;;4.00;99.90;;;;;;4956356;28;20577;-79
2022/01/21 11:10:57;;;;;;;7.00;4.18;;;4.10;99.90;;;;;;4963540;28;20188;-80
2022/01/21 11:13:22;;;;;;;10.87;4.10;;;4.00;99.90;;;;;;4972744;28;20591;-80
2022/01/21 11:16:12;;;;;;;7.20;4.07;;;4.20;99.90;;;;;;4975322;28;20172;-82
2022/01/21 11:18:57;;;;;;;11.60;4.93;;;4.20;99.90;;;;;;4974065;28;20181;-78
2022/01/21 11:21:59;;;;;;;13.15;4.40;;;4.20;99.90;;;;;;4975087;28;20212;-82
2022/01/21 11:24:26;;;;;;;8.30;4.82;;;4.30;99.90;;;;;;4975138;28;20183;-79
2022/01/21 11:27:11;;;;;;;5.90;4.18;;;4.30;99.90;;;;;;4975144;28;20204;-79
2022/01/21 11:29:38;;;;;;;8.52;4.00;;;4.40;99.90;;;;;;4975134;28;20269;-80
2022/01/21 11:32:05;;;;;;;8.32;4.53;;;4.30;99.90;;;;;;4957663;28;20252;-79
2022/01/21 11:34:35;;;;;;;7.63;4.20;;;4.40;99.90;;;;;;4974305;28;20593;-80
2022/01/21 11:37:02;;;;;;;7.57;3.75;;;4.30;99.90;;;;;;4974975;28;20181;-78
2022/01/21 11:39:29;;;;;;;3.40;3.10;;;4.30;99.90;;;;;;4974683;28;20575;-80
2022/01/21 11:41:56;;;;;;;10.93;3.90;;;4.40;99.90;;;;;;4974541;28;20251;-79
2022/01/21 11:44:28;;;;;;;5.05;3.67;;;4.40;99.90;;;;;;4974825;28;20179;-80
2022/01/21 11:47:13;;;;;;;10.75;3.75;;;4.40;99.90;;;;;;4974979;28;20240;-80
2022/01/21 11:49:53;;;;;;;11.85;3.88;;;4.50;99.90;;;;;;4974571;28;20180;-81
2022/01/21 11:52:19;;;;;;;14.07;5.40;;;4.40;99.90;;;;;;4974423;28;20203;-79
2022/01/21 11:54:46;;;;;;;8.77;4.47;;;4.50;99.90;;;;;;4975942;28;20177;-79
2022/01/21 11:57:13;;;;;;;8.90;4.55;;;4.60;99.90;;;;;;4973910;28;20189;-79
2022/01/21 12:00:07;;;;;;;11.27;4.07;;;4.70;99.90;;;;;;4975207;28;20185;-82
2022/01/21 12:02:36;;;;;;;6.18;3.53;;;4.70;99.90;;;;;;4974517;28;20196;-79
2022/01/21 12:05:07;;;;;;;7.07;3.80;;;4.70;99.90;;;;;;4974236;28;20176;-77
2022/01/21 12:07:44;;;;;;;12.77;3.67;;;4.70;99.90;;;;;;4973324;28;20219;-79
2022/01/21 12:10:13;;;;;;;9.15;3.80;;;4.70;99.90;;;;;;4974954;28;20668;-79
2022/01/21 12:12:48;;;;;;;8.73;3.80;;;4.70;99.90;;;;;;4973280;28;20723;-82
2022/01/21 12:15:36;;;;;;;5.75;3.25;;;4.80;99.90;;;;;;4975162;28;20176;-79
2022/01/21 12:18:30;;;;;;;11.70;4.35;;;4.70;99.90;;;;;;4974649;28;20204;-80
2022/01/21 12:21:00;;;;;;;5.82;3.35;;;4.70;99.90;;;;;;4974283;28;20173;-78
2022/01/21 12:23:28;;;;;;;5.85;3.15;;;4.60;99.90;;;;;;4974629;28;20177;-79
2022/01/21 12:26:16;;;;;;;10.48;3.15;;;4.70;99.90;;;;;;4974164;28;20188;-78
2022/01/21 12:28:52;;;;;;;7.40;3.35;;;4.70;99.90;;;;;;4974442;28;20172;-81
2022/01/21 12:31:19;;;;;;;7.38;3.40;;;4.80;99.90;;;;;;4973960;28;20188;-81
2022/01/21 12:33:51;;;;;;;7.13;3.47;;;4.80;99.90;;;;;;4974144;28;20515;-81
2022/01/21 12:36:31;;;;;;;13.63;3.80;;;4.80;99.90;;;;;;4968536;28;20239;-81
2022/01/21 12:41:43;;;;;;;12.27;3.60;;;5.00;99.90;;;;;;4965235;28;20587;-80
2022/01/21 12:44:10;;;;;;;11.18;4.00;;;5.10;99.90;;;;;;4964008;28;20252;-81
2022/01/21 12:46:42;;;;;;;10.52;3.75;;;5.10;99.90;;;;;;4962730;28;20203;-81
2022/01/21 12:49:26;;;;;;;10.00;4.90;;;5.20;99.90;;;;;;4967071;28;20172;-79
2022/01/21 12:52:09;;;;;;;7.60;5.50;;;5.10;99.90;;;;;;4968831;28;20196;-80
2022/01/21 12:57:28;;;;;;;10.15;5.47;;;5.10;99.90;;;;;;4965935;28;20204;-81
2022/01/21 12:59:55;;;;;;;12.80;5.25;;;5.00;99.90;;;;;;4973748;28;20181;-79
2022/01/21 13:02:26;;;;;;;17.35;5.05;;;5.00;99.90;;;;;;4973273;28;20229;-80
2022/01/21 13:05:17;;;;;;;7.60;4.38;;;5.20;99.90;;;;;;4974288;28;20181;-80
2022/01/21 13:08:02;;;;;;;10.02;3.50;;;5.10;99.90;;;;;;4973827;28;20196;-81
2022/01/21 13:10:29;;;;;;;10.07;3.55;;;5.30;99.90;;;;;;4972761;28;20272;-79
2022/01/21 13:13:13;;;;;;;12.63;3.60;;;5.20;99.90;;;;;;4973317;28;20205;-79
2022/01/21 13:15:40;;;;;;;8.52;2.75;;;5.10;99.90;;;;;;4975818;28;20186;-82
2022/01/21 13:18:17;;;;;;;9.63;4.38;;;5.10;99.90;;;;;;4978085;28;20184;-81
2022/01/21 13:20:46;;;;;;;11.23;3.90;;;5.00;99.90;;;;;;4976968;28;20187;-81
2022/01/21 13:23:27;;;;;;;7.65;3.53;;;5.10;99.90;;;;;;4977010;28;20291;-81
2022/01/21 13:25:53;;;;;;;8.52;3.75;;;5.00;99.90;;;;;;4978083;28;20164;-80
2022/01/21 13:28:18;;;;;;;11.10;4.33;;;5.10;99.90;;;;;;4978229;28;20260;-82
2022/01/21 13:30:44;;;;;;;12.60;3.97;;;5.10;99.90;;;;;;4978325;28;20255;-82
2022/01/21 13:33:12;;;;;;;8.13;3.93;;;5.20;99.90;;;;;;4977141;28;20635;-80
2022/01/21 13:35:43;;;;;;;11.55;3.55;;;5.20;99.90;;;;;;4978213;28;20641;-81
2022/01/21 13:38:12;;;;;;;5.20;3.20;;;5.10;99.90;;;;;;4976978;28;20243;-82
2022/01/21 13:40:46;;;;;;;10.93;4.10;;;5.20;99.90;;;;;;4977528;28;20519;-81
2022/01/21 13:43:18;;;;;;;11.55;5.05;;;5.10;99.90;;;;;;4977057;28;20199;-80
2022/01/21 13:46:02;;;;;;;11.02;5.28;;;5.10;99.90;;;;;;4977558;28;20208;-81
2022/01/21 13:48:30;;;;;;;10.57;4.40;;;5.10;99.90;;;;;;4977545;28;20189;-81
2022/01/21 13:50:58;;;;;;;16.10;5.70;;;5.10;99.90;;;;;;4976333;28;20192;-80
2022/01/21 13:53:26;;;;;;;10.02;5.72;;;5.10;99.90;;;;;;4976252;28;20173;-82
2022/01/21 13:55:57;;;;;;;11.43;4.63;;;5.10;99.90;;;;;;4976347;28;20169;-80
2022/01/21 13:58:25;;;;;;;7.95;4.57;;;5.00;99.90;;;;;;4976460;28;20184;-81
2022/01/21 14:00:56;;;;;;;11.23;5.68;;;5.00;99.90;;;;;;4976431;28;20204;-81
2022/01/21 14:03:23;;;;;;;8.75;5.00;;;5.00;99.90;;;;;;4976692;28;20207;-81